Latest Weather Observations for Longreach

IDQ60801

Issued at 10:32 pm EST Sunday 21 December 2014 (issued every 30 minutes, with the page automatically refreshed every 10 minutes)

About weather observations | Map of weather stations | Latest weather observations for QLD | Other Formats
Station Details ID: 036031 Name: LONGREACH AERO Lat: -23.44 Lon: 144.28 Height: 192.2 m
Data from the previous 72 hours. | See also: Recent months at Longreach
Date/Time
EST
Temp
°C
App
Temp
°C
Dew
Point
Rel
Hum
%
Delta-T
°C
Wind Press
QNH
hPa
Press
MSL
hPa
Rain
since 9 am
mm
Dir
 
Spd
km/h
Gust
km/h
Spd
kts
Gust
kts
21/10:30pm 28.2 24.9 8.1 28 11.0 NE 15 15 8 8 1011.3 - 0.0
21/10:00pm 28.2 24.9 7.9 28 11.1 ENE 15 15 8 8 1011.0 - 0.0
21/09:30pm 29.2 26.1 7.3 25 11.9 NE 13 15 7 8 1010.7 - 0.0
21/09:00pm 30.5 27.0 7.0 23 12.8 ENE 15 17 8 9 1010.5 1009.1 0.0
21/08:30pm 31.5 27.9 6.7 21 13.5 ENE 15 17 8 9 1010.3 - 0.0
21/08:00pm 32.6 28.7 7.0 20 14.1 ENE 17 19 9 10 1010.1 - 0.0
21/07:30pm 33.6 29.2 6.4 18 14.9 ENE 19 24 10 13 1009.9 - 0.0
21/07:00pm 34.6 29.2 6.2 17 15.6 ENE 24 33 13 18 1009.6 - 0.0
21/06:30pm 35.6 30.3 7.0 17 16.0 ENE 24 30 13 16 1009.3 - 0.0
21/06:00pm 36.8 30.8 6.9 16 16.8 ENE 28 33 15 18 1009.1 1007.8 0.0
21/05:30pm 36.2 30.5 6.9 16 16.4 E 26 32 14 17 1009.1 - 0.0
21/05:00pm 36.3 30.8 7.4 17 16.3 ENE 26 37 14 20 1009.0 - 0.0
21/04:30pm 37.4 32.2 7.1 15 17.1 NNE 24 33 13 18 1009.0 - 0.0
21/04:00pm 38.5 33.4 7.5 15 17.7 ENE 24 32 13 17 1009.1 - 0.0
21/03:30pm 36.2 32.0 7.5 17 16.2 ENE 19 30 10 16 1009.4 - 0.0
21/03:00pm 36.3 33.3 7.7 17 16.2 ENE 13 17 7 9 1009.7 1008.4 0.0
21/02:30pm 36.2 31.5 7.8 17 16.1 ENE 22 35 12 19 1010.2 - 0.0
21/02:00pm 36.2 30.9 8.4 18 15.9 NE 26 39 14 21 1010.6 - 0.0
21/01:30pm 36.6 32.3 9.2 19 15.9 NE 22 37 12 20 1011.0 - 0.0
21/01:00pm 38.6 34.6 9.2 17 17.2 NNE 20 39 11 21 1011.4 - 0.0
21/12:39pm 37.8 32.8 9.7 18 16.5 N 26 37 14 20 1011.8 - 0.0
21/12:31pm 37.2 29.9 10.3 19 15.9 NNE 39 44 21 24 1012.0 - 0.0
21/12:29pm 35.7 30.5 10.4 21 14.9 ENE 28 46 15 25 1012.0 - 0.0
21/12:00pm 36.2 30.9 9.9 20 15.4 NE 28 41 15 22 1012.5 1011.2 0.0
21/11:30am 36.3 31.2 9.2 19 15.7 NNE 26 32 14 17 1012.8 - 0.0
21/11:00am 35.6 30.6 11.0 22 14.6 NE 28 37 15 20 1013.2 - 0.0
21/10:30am 35.3 29.8 10.7 22 14.5 NNE 30 39 16 21 1013.4 - 0.0
21/10:00am 33.7 29.3 11.7 26 13.1 NNE 26 35 14 19 1013.4 - 0.0
21/09:30am 33.2 27.9 11.3 26 12.9 NNE 30 39 16 21 1013.4 - 0.0
21/08:30am 31.3 28.0 13.9 34 10.6 NNE 24 30 13 16 1013.3 - 0.0
21/08:00am 31.0 27.7 14.1 35 10.3 NNE 24 30 13 16 1013.2 - 0.0
21/07:30am 29.0 27.2 16.0 45 8.1 NNE 20 30 11 16 1013.0 - 0.0
21/06:30am 25.5 25.8 16.1 56 5.8 E 9 11 5 6 1011.9 - 0.0
21/05:30am 25.4 24.8 15.6 54 6.0 NNE 13 17 7 9 1010.9 - 0.0
21/05:00am 26.4 24.6 15.5 51 6.7 NNE 19 26 10 14 1010.3 - 0.0
21/04:30am 26.3 24.2 14.7 48 7.0 NNE 19 24 10 13 1010.0 - 0.0
21/04:00am 26.1 23.3 13.2 44 7.6 NNE 20 26 11 14 1009.9 - 0.0
21/03:30am 26.3 21.8 11.5 39 8.5 NE 26 32 14 17 1009.6 - 0.0
21/03:00am 26.2 22.9 9.5 35 9.3 NE 17 20 9 11 1009.5 1008.2 0.0
21/02:30am 25.0 22.4 9.4 37 8.6 NE 13 15 7 8 1009.4 - 0.0
21/02:00am 24.4 22.4 10.0 40 8.0 NE 11 11 6 6 1009.3 - 0.0
21/01:30am 25.8 23.2 9.4 35 9.1 NE 13 15 7 8 1009.3 - 0.0
21/01:00am 26.0 23.1 9.7 35 9.1 NE 15 15 8 8 1009.6 - 0.0
21/12:30am 25.9 23.4 9.7 36 9.0 NNE 13 15 7 8 1009.9 - 0.0
21/12:00am 27.6 25.1 9.6 32 10.1 NNE 13 15 7 8 1010.2 1008.8 0.0
 
Date/Time
EST
Temp
°C
App
Temp
°C
Dew
Point
Rel
Hum
%
Delta-T
°C
Wind Press
QNH
hPa
Press
MSL
hPa
Rain
since 9 am
mm
Dir
 
Spd
km/h
Gust
km/h
Spd
kts
Gust
kts
20/11:30pm 29.0 25.5 8.9 28 11.2 NE 17 19 9 10 1010.5 - 0.0
20/11:00pm 29.3 25.8 8.9 28 11.4 ENE 17 19 9 10 1010.7 - 0.0
20/10:30pm 29.9 26.3 8.2 25 12.0 ENE 17 19 9 10 1010.8 - 0.0
20/10:00pm 30.5 26.9 8.2 25 12.4 ENE 17 19 9 10 1010.7 - 0.0
20/09:30pm 31.3 27.7 8.2 23 12.9 ENE 17 22 9 12 1010.5 - 0.0
20/09:00pm 31.5 27.9 8.2 23 13.0 ENE 17 19 9 10 1010.3 1008.9 0.0
20/08:30pm 32.3 28.7 8.2 22 13.5 ENE 17 22 9 12 1010.1 - 0.0
20/08:00pm 33.0 29.3 7.8 21 14.1 NE 17 20 9 11 1009.9 - 0.0
20/07:30pm 34.0 30.0 8.1 20 14.6 NE 19 22 10 12 1009.4 - 0.0
20/07:00pm 35.1 30.3 7.5 18 15.5 ENE 22 30 12 16 1009.1 - 0.0
20/06:30pm 36.2 33.5 8.8 18 15.8 SSE 13 17 7 9 1008.7 - 0.0
20/06:00pm 36.4 33.9 8.0 17 16.2 SE 11 15 6 8 1008.5 1007.2 0.0
20/05:30pm 36.5 33.6 8.2 17 16.2 ESE 13 19 7 10 1008.2 - 0.0
20/05:00pm 37.1 33.7 7.8 16 16.7 E 15 32 8 17 1008.1 - 0.0
20/04:30pm 37.9 34.9 7.9 16 17.2 E 13 19 7 10 1008.0 - 0.0
20/04:00pm 37.7 34.7 7.8 16 17.1 NNE 13 26 7 14 1008.1 - 0.0
20/03:30pm 37.0 34.1 8.2 17 16.5 ENE 13 19 7 10 1008.6 - 0.0
20/03:00pm 38.4 35.6 8.6 16 17.3 NE 13 22 7 12 1009.0 1007.7 0.0
20/02:30pm 37.8 34.8 9.2 17 16.7 E 15 22 8 12 1009.5 - 0.0
20/02:00pm 37.2 34.4 8.6 17 16.5 E 13 19 7 10 1010.1 - 0.0
20/01:30pm 36.1 32.0 8.6 18 15.8 E 20 26 11 14 1010.4 - 0.0
20/01:00pm 36.1 33.1 7.9 17 16.0 NE 13 28 7 15 1010.8 - 0.0
20/12:30pm 36.4 32.5 9.4 19 15.7 E 20 33 11 18 1011.2 - 0.0
20/12:00pm 36.2 32.3 8.7 18 15.8 E 19 28 10 15 1011.8 1010.5 0.0
20/11:30am 36.4 32.5 9.4 19 15.7 E 20 28 11 15 1012.2 - 0.0
20/11:00am 35.8 31.8 9.1 19 15.4 NE 20 28 11 15 1012.8 - 0.0
20/10:30am 35.1 33.8 12.4 25 13.7 N 11 15 6 8 1013.2 - 0.0
20/10:00am 34.1 32.8 13.7 29 12.5 E 13 19 7 10 1013.5 - 0.0
20/09:30am 33.8 32.9 13.7 29 12.3 ENE 11 19 6 10 1013.7 - 0.0
20/09:00am 31.9 31.1 16.0 38 10.0 NE 15 19 8 10 1013.8 1012.5 0.0
20/08:30am 31.1 29.6 16.4 41 9.3 NNE 19 28 10 15 1013.6 - 0.0
20/08:00am 30.4 29.2 17.0 44 8.5 N 19 28 10 15 1013.6 - 0.0
20/07:30am 28.3 28.5 19.3 58 5.9 NNE 17 20 9 11 1013.5 - 0.0
20/07:00am 27.6 27.6 19.0 59 5.6 NNE 17 19 9 10 1013.1 - 0.0
20/06:30am 25.7 25.7 18.2 63 4.8 NNE 15 17 8 9 1012.5 - 0.0
20/06:00am 24.4 24.6 17.7 66 4.2 NE 13 15 7 8 1012.2 1010.9 0.0
20/05:30am 23.1 22.2 16.8 67 3.9 ENE 17 19 9 10 1011.8 - 0.0
20/05:00am 22.1 21.7 15.1 64 4.2 NNE 11 11 6 6 1011.3 - 0.0
20/04:30am 22.7 22.9 15.8 65 4.2 NNE 9 11 5 6 1011.1 - 0.0
20/04:00am 24.4 24.8 17.2 64 4.5 NNE 11 13 6 7 1011.1 - 0.0
20/03:30am 23.5 22.4 15.4 60 4.9 ENE 15 15 8 8 1011.2 - 0.0
20/03:00am 24.2 23.5 15.5 58 5.3 ENE 13 15 7 8 1011.2 1009.8 0.0
20/02:30am 24.6 23.4 15.0 55 5.8 ENE 15 15 8 8 1011.2 - 0.0
20/02:00am 25.1 23.7 14.4 51 6.4 ENE 15 17 8 9 1011.3 - 0.0
20/01:30am 25.3 22.8 12.2 44 7.6 ENE 17 19 9 10 1011.6 - 0.0
20/01:00am 26.1 22.9 10.0 36 9.0 E 17 19 9 10 1011.8 - 0.0
20/12:30am 25.7 21.7 6.8 30 10.0 E 17 17 9 9 1011.9 - 0.0
20/12:00am 27.9 24.6 6.5 25 11.4 ESE 13 17 7 9 1012.1 1010.8 0.0
 
Date/Time
EST
Temp
°C
App
Temp
°C
Dew
Point
Rel
Hum
%
Delta-T
°C
Wind Press
QNH
hPa
Press
MSL
hPa
Rain
since 9 am
mm
Dir
 
Spd
km/h
Gust
km/h
Spd
kts
Gust
kts
19/11:30pm 28.6 26.6 8.5 28 11.1 SE 9 11 5 6 1012.4 - 0.0
19/11:00pm 28.8 26.0 8.6 28 11.2 SSW 13 15 7 8 1012.7 - 0.0
19/10:30pm 26.9 24.7 7.9 30 10.3 NE 9 13 5 7 1012.5 - 0.0
19/10:00pm 27.9 24.1 5.9 24 11.6 ENE 15 15 8 8 1012.3 - 0.0
19/09:30pm 28.4 24.5 3.6 20 12.6 E 13 17 7 9 1012.0 - 0.0
19/09:00pm 30.6 25.9 2.9 17 14.1 SE 17 20 9 11 1011.6 1010.3 0.0
19/08:30pm 31.4 27.2 3.9 17 14.3 SE 15 17 8 9 1011.2 - 0.0
19/08:00pm 32.6 29.4 5.0 17 14.7 SE 11 13 6 7 1010.9 - 0.0
19/07:30pm 33.9 30.2 4.4 16 15.7 SE 13 13 7 7 1010.6 - 0.0
19/07:00pm 35.0 30.9 4.3 14 16.4 SE 15 20 8 11 1010.3 - 0.0
19/06:30pm 35.9 31.1 4.5 14 16.9 SSE 19 26 10 14 1010.0 - 0.0
19/06:00pm 36.0 31.6 4.8 14 16.9 SE 17 26 9 14 1009.7 1008.4 0.0
19/05:30pm 36.0 31.7 5.1 14 16.8 SE 17 26 9 14 1009.6 - 0.0
19/05:00pm 36.5 33.1 7.5 17 16.4 SE 15 28 8 15 1009.5 - 0.0
19/04:30pm 36.5 31.8 6.2 15 16.8 SSE 20 43 11 23 1009.4 - 0.0
19/04:00pm 37.0 32.6 7.6 16 16.7 SE 20 30 11 16 1009.6 - 0.0
19/03:30pm 36.3 32.5 7.4 17 16.3 ESE 17 30 9 16 1009.9 - 0.0
19/03:00pm 36.1 31.0 6.0 15 16.6 S 22 32 12 17 1010.3 1008.9 0.0
19/02:30pm 36.5 33.3 6.9 16 16.6 S 13 17 7 9 1010.6 - 0.0
19/02:00pm 36.7 31.7 6.3 15 16.9 S 22 35 12 19 1011.0 - 0.0
19/01:30pm 35.4 31.1 7.8 18 15.6 ESE 20 32 11 17 1011.4 - 0.0
19/01:00pm 34.6 30.1 7.1 18 15.3 SSE 20 28 11 15 1011.9 - 0.0
19/12:30pm 34.9 29.7 7.1 18 15.5 SSE 24 39 13 21 1012.3 - 0.0
19/12:00pm 34.7 30.5 8.2 19 15.0 SE 20 26 11 14 1012.7 1011.4 0.0
19/11:30am 34.5 29.9 8.1 19 14.9 ESE 22 35 12 19 1013.1 - 0.0
19/11:00am 32.7 28.7 11.8 28 12.4 SSE 24 41 13 22 1013.5 - 0.0
19/10:30am 31.9 30.5 14.5 34 10.7 SE 15 19 8 10 1013.8 - 0.0
19/10:00am 31.0 29.5 16.2 41 9.3 S 19 28 10 15 1013.9 - 0.0
19/09:30am 28.9 27.5 16.9 48 7.6 SSE 20 28 11 15 1014.2 - 0.0
19/09:00am 28.1 26.8 17.2 51 6.9 S 20 28 11 15 1014.2 1012.9 0.0
19/08:30am 27.6 27.4 18.4 57 5.9 S 17 24 9 13 1014.2 - 0.0
19/08:00am 26.6 26.7 18.3 60 5.3 S 15 20 8 11 1014.0 - 0.0
19/07:30am 25.0 25.7 18.8 68 4.0 SSW 13 15 7 8 1013.9 - 0.0
19/07:00am 24.2 25.3 18.9 72 3.4 SSW 11 15 6 8 1013.4 - 0.0
19/06:30am 23.1 23.8 18.9 77 2.7 SSW 13 15 7 8 1013.2 - 0.0
19/06:00am 22.9 24.3 18.7 77 2.7 SW 9 11 5 6 1012.9 1011.6 0.0
19/05:30am 23.0 24.3 18.4 75 2.9 SW 9 11 5 6 1012.5 - 0.0
19/05:00am 23.0 24.4 18.6 76 2.8 SSW 9 11 5 6 1012.3 - 0.0
19/04:30am 23.0 24.4 18.6 76 2.8 S 9 11 5 6 1012.0 - 0.0
19/04:00am 22.9 23.9 18.7 77 2.7 SSW 11 13 6 7 1012.2 - 0.0
19/03:30am 23.0 24.0 18.6 76 2.8 SSW 11 13 6 7 1012.2 - 0.0
19/03:00am 22.9 23.8 18.3 75 2.9 SW 11 15 6 8 1012.2 1010.9 0.0
19/02:30am 23.0 26.3 19.1 78 2.5 CALM 0 0 0 0 1012.1 - 0.0
19/02:00am 22.9 24.6 19.3 80 2.3 ESE 9 11 5 6 1012.1 - 0.0
19/01:30am 23.1 23.5 18.9 77 2.7 ESE 15 17 8 9 1011.9 - 0.0
19/01:00am 23.4 23.4 18.2 72 3.3 ESE 15 17 8 9 1012.6 - 0.0
19/12:30am 23.4 23.4 18.0 71 3.4 E 15 19 8 10 1012.9 - 0.0
19/12:00am 23.5 23.4 17.8 70 3.6 E 15 19 8 10 1013.1 1011.8 0.0
 
Date/Time
EST
Temp
°C
App
Temp
°C
Dew
Point
Rel
Hum
%
Delta-T
°C
Wind Press
QNH
hPa
Press
MSL
hPa
Rain
since 9 am
mm
Dir
 
Spd
km/h
Gust
km/h
Spd
kts
Gust
kts
18/11:30pm 23.9 23.6 17.3 66 4.1 ENE 15 19 8 10 1013.3 - 0.0
18/11:00pm 23.7 23.1 17.6 68 3.8 E 17 24 9 13 1013.2 - 0.0

Other Formats:

Comma delimited format used in spreadsheet applications
http://www.bom.gov.au/fwo/IDQ60801/IDQ60801.94346.axf

JavaScript Object Notation format (JSON) in row-major order
http://www.bom.gov.au/fwo/IDQ60801/IDQ60801.94346.json